createdAt,value
2022-10-16T00:04:51.802Z,42.03
2022-10-16T00:09:54.771Z,43.70
2022-10-16T00:14:57.723Z,48.03
2022-10-16T00:20:00.660Z,45.13
2022-10-16T00:25:03.736Z,42.90
2022-10-16T00:30:09.523Z,44.43
2022-10-16T00:35:12.580Z,42.97
2022-10-16T00:40:15.843Z,44.33
2022-10-16T00:45:19.173Z,43.30
2022-10-16T00:50:29.684Z,49.43
2022-10-16T00:55:33.103Z,45.67
2022-10-16T01:00:36.352Z,49.97
2022-10-16T01:05:52.693Z,45.90
2022-10-16T01:11:04.243Z,47.73
2022-10-16T01:16:19.515Z,50.33
2022-10-16T01:21:39.477Z,50.27
2022-10-16T01:27:00.973Z,47.97
2022-10-16T01:32:23.873Z,52.17
2022-10-16T01:38:09.124Z,56.10
2022-10-16T01:43:20.844Z,52.90
2022-10-16T01:48:25.442Z,51.80
2022-10-16T01:53:28.898Z,60.47
2022-10-16T01:58:36.273Z,50.80
2022-10-16T02:03:41.365Z,58.37
2022-10-16T02:08:45.413Z,51.13
2022-10-16T02:13:54.276Z,55.33
2022-10-16T02:18:57.574Z,56.60
2022-10-16T02:24:22.284Z,49.13
2022-10-16T02:29:28.274Z,51.10
2022-10-16T02:34:33.959Z,51.27
2022-10-16T02:39:37.192Z,51.37
2022-10-16T02:44:40.663Z,52.00
2022-10-16T02:49:44.004Z,50.43
2022-10-16T02:54:47.016Z,48.47
2022-10-16T02:59:50.314Z,50.30
2022-10-16T03:04:53.363Z,49.30
2022-10-16T03:09:57.053Z,52.50
2022-10-16T03:15:00.601Z,51.07
2022-10-16T03:20:04.583Z,55.27
2022-10-16T03:25:08.386Z,53.70
2022-10-16T03:30:11.903Z,51.00
2022-10-16T03:35:14.903Z,49.23
2022-10-16T03:40:18.402Z,47.03
2022-10-16T03:45:21.559Z,49.03
2022-10-16T03:50:24.503Z,50.87
2022-10-16T03:55:27.497Z,46.93
2022-10-16T04:00:30.540Z,47.73
2022-10-16T04:05:33.849Z,46.13
2022-10-16T04:10:37.089Z,46.57
2022-10-16T04:15:40.790Z,49.70
2022-10-16T04:20:43.900Z,53.07
2022-10-16T04:25:47.182Z,51.90
2022-10-16T04:30:50.545Z,47.50
2022-10-16T04:36:01.680Z,44.03
2022-10-16T04:41:05.919Z,41.97
2022-10-16T04:46:09.129Z,44.80
2022-10-16T04:51:12.534Z,46.07
2022-10-16T04:56:16.978Z,43.27
2022-10-16T05:01:20.356Z,46.00
2022-10-16T05:06:23.580Z,46.47
2022-10-16T05:11:26.869Z,39.70
2022-10-16T05:16:30.549Z,46.63
2022-10-16T05:21:33.709Z,46.33
2022-10-16T05:26:36.978Z,44.50
2022-10-16T05:31:40.141Z,41.13
2022-10-16T05:36:43.567Z,44.53
2022-10-16T05:41:47.168Z,41.20
2022-10-16T05:46:50.439Z,39.03
2022-10-16T05:51:53.331Z,35.13
2022-10-16T05:56:56.297Z,37.97
2022-10-16T06:01:59.631Z,36.77
2022-10-16T06:07:02.730Z,35.13
2022-10-16T06:12:06.099Z,36.17
2022-10-16T06:17:09.160Z,33.40
2022-10-16T06:22:12.679Z,30.63
2022-10-16T06:27:15.947Z,32.83
2022-10-16T06:32:19.779Z,29.43
2022-10-16T06:37:23.615Z,28.20
2022-10-16T06:42:27.181Z,28.80
2022-10-16T06:47:30.646Z,30.57
2022-10-16T06:52:34.035Z,32.90
2022-10-16T06:57:37.029Z,27.70
2022-10-16T07:02:40.458Z,26.47
2022-10-16T07:07:43.763Z,26.33
2022-10-16T07:12:46.969Z,23.90
2022-10-16T07:17:50.267Z,24.37
2022-10-16T07:22:53.819Z,24.17
2022-10-16T07:27:57.420Z,25.40
2022-10-16T07:33:00.503Z,23.40
2022-10-16T07:38:03.451Z,21.20
2022-10-16T07:43:06.840Z,23.23
2022-10-16T07:48:10.011Z,21.60
2022-10-16T07:53:13.750Z,20.43
2022-10-16T07:58:20.698Z,18.13
2022-10-16T08:03:24.142Z,17.23
2022-10-16T08:08:28.219Z,16.23
2022-10-16T08:13:32.051Z,18.15
2022-10-16T08:18:37.076Z,17.00
2022-10-16T08:23:40.350Z,16.83
2022-10-16T08:28:44.745Z,20.00
2022-10-16T08:33:49.298Z,18.20
2022-10-16T08:38:55.627Z,15.20
2022-10-16T08:44:12.809Z,16.35
2022-10-16T08:49:16.270Z,13.70
2022-10-16T08:54:22.311Z,14.30
2022-10-16T08:59:25.437Z,13.48
2022-10-16T09:04:43.551Z,12.95
2022-10-16T09:09:46.501Z,12.32
2022-10-16T09:15:14.497Z,11.27
2022-10-16T09:20:34.039Z,10.30
2022-10-16T09:25:37.629Z,12.32
2022-10-16T09:30:41.380Z,10.27
2022-10-16T09:35:53.247Z,9.50
2022-10-16T09:41:03.126Z,11.35
2022-10-16T09:46:09.599Z,8.82
2022-10-16T09:51:21.289Z,10.63
2022-10-16T09:56:37.155Z,8.90
2022-10-16T10:01:46.178Z,10.43
2022-10-16T10:06:50.426Z,8.70
2022-10-16T10:11:59.089Z,10.55
2022-10-16T10:17:13.489Z,11.05
2022-10-16T10:22:25.286Z,11.40
2022-10-16T10:27:37.109Z,11.18
2022-10-16T10:32:51.142Z,7.07
2022-10-16T10:38:31.760Z,10.95
2022-10-16T10:43:52.960Z,8.57
2022-10-16T10:49:24.889Z,6.50
2022-10-16T10:54:31.171Z,6.07
2022-10-16T10:59:46.957Z,8.50
2022-10-16T11:04:58.784Z,5.88
2022-10-16T11:10:35.498Z,5.75
2022-10-16T11:15:41.072Z,7.43
2022-10-16T11:20:50.645Z,6.07
2022-10-16T11:26:00.440Z,5.93
2022-10-16T11:31:17.580Z,6.55
2022-10-16T11:36:34.728Z,5.80
2022-10-16T11:41:51.929Z,6.43
2022-10-16T11:47:46.574Z,6.65
2022-10-16T11:53:15.141Z,7.43
2022-10-16T11:58:46.879Z,5.07
2022-10-16T12:04:34.030Z,7.38
2022-10-16T12:09:42.132Z,7.68
2022-10-16T12:15:14.731Z,7.95
2022-10-16T12:20:20.044Z,7.60
2022-10-16T12:25:25.089Z,6.80
2022-10-16T12:30:35.889Z,7.25
2022-10-16T12:35:46.823Z,6.53
2022-10-16T12:41:25.859Z,10.73
2022-10-16T12:47:16.889Z,9.38
2022-10-16T12:52:37.351Z,6.53
2022-10-16T12:58:02.015Z,10.07
2022-10-16T13:03:25.111Z,8.02
2022-10-16T13:08:51.986Z,7.00
2022-10-16T13:14:14.560Z,7.65
2022-10-16T13:19:48.163Z,7.43
2022-10-16T13:25:13.884Z,7.05
2022-10-16T13:30:29.757Z,6.28
2022-10-16T13:35:37.737Z,6.00
2022-10-16T13:41:02.108Z,7.13
2022-10-16T13:46:12.429Z,6.20
2022-10-16T13:51:20.131Z,5.47
2022-10-16T13:56:26.589Z,6.10
2022-10-16T14:01:36.987Z,6.78
2022-10-16T14:06:44.429Z,7.68
2022-10-16T14:11:53.149Z,5.95
2022-10-16T14:16:56.679Z,8.55
2022-10-16T14:22:02.910Z,6.72
2022-10-16T14:27:33.329Z,9.85
2022-10-16T14:32:36.669Z,11.35
2022-10-16T14:37:41.223Z,12.52
2022-10-16T14:42:46.329Z,15.50
2022-10-16T14:47:55.988Z,13.23
2022-10-16T14:53:00.729Z,10.10
2022-10-16T14:58:04.138Z,9.50
2022-10-16T15:03:07.279Z,8.18
2022-10-16T15:08:10.478Z,9.95
2022-10-16T15:13:15.218Z,14.10
2022-10-16T15:18:21.636Z,15.38
2022-10-16T15:28:33.030Z,15.10
2022-10-16T15:33:39.907Z,10.48
2022-10-16T15:38:43.560Z,14.82
2022-10-16T15:43:49.779Z,13.18
2022-10-16T15:48:58.828Z,13.88
2022-10-16T15:54:03.327Z,21.27
2022-10-16T15:59:07.209Z,20.42
2022-10-16T16:04:15.423Z,15.73
2022-10-16T16:09:23.859Z,15.15
2022-10-16T16:14:29.182Z,13.38
2022-10-16T16:19:33.439Z,17.17
2022-10-16T16:24:36.619Z,19.92
2022-10-16T16:29:40.185Z,19.50
2022-10-16T16:34:43.435Z,31.10
2022-10-16T16:39:48.069Z,20.75
2022-10-16T16:44:52.228Z,23.47
2022-10-16T16:49:56.720Z,22.20
2022-10-16T16:55:00.761Z,24.97
2022-10-16T17:00:05.839Z,24.17
2022-10-16T17:05:09.630Z,14.63
2022-10-16T17:10:13.659Z,16.37
2022-10-16T17:15:17.326Z,15.47
2022-10-16T17:20:22.117Z,21.93
2022-10-16T17:25:27.545Z,29.50
2022-10-16T17:30:34.750Z,18.77
2022-10-16T17:35:50.250Z,18.37
2022-10-16T17:40:54.514Z,22.03
2022-10-16T17:45:58.869Z,41.63
2022-10-16T17:51:06.256Z,29.03
2022-10-16T17:56:14.224Z,25.37
2022-10-16T18:01:25.111Z,32.77
2022-10-16T18:06:32.069Z,30.20
2022-10-16T18:11:39.179Z,38.50
2022-10-16T18:16:45.987Z,23.30
2022-10-16T18:21:50.532Z,22.43
2022-10-16T18:26:57.318Z,45.23
2022-10-16T18:32:01.770Z,28.07
2022-10-16T18:37:06.380Z,30.07
2022-10-16T18:42:10.533Z,30.40
2022-10-16T18:47:14.834Z,27.50
2022-10-16T18:52:19.477Z,35.23
2022-10-16T18:57:24.808Z,23.40
2022-10-16T19:02:30.165Z,29.43
2022-10-16T19:07:35.443Z,55.60
2022-10-16T19:12:41.998Z,197.93
2022-10-16T19:17:51.790Z,94.30
2022-10-16T19:22:59.759Z,48.90
2022-10-16T19:28:07.805Z,81.53
2022-10-16T19:33:11.708Z,79.40
2022-10-16T19:38:15.769Z,59.20
2022-10-16T19:43:19.959Z,41.63
2022-10-16T19:53:29.441Z,41.33
2022-10-16T19:58:33.829Z,67.10
2022-10-16T20:03:37.469Z,82.13
2022-10-16T20:08:45.460Z,83.17
2022-10-16T20:13:49.022Z,79.00
2022-10-16T20:18:54.307Z,72.40
2022-10-16T20:23:58.627Z,81.73
2022-10-16T20:29:02.794Z,75.97
2022-10-16T20:34:09.110Z,55.10
2022-10-16T20:39:14.137Z,50.77
2022-10-16T20:44:18.964Z,45.70
2022-10-16T20:49:36.091Z,37.97
2022-10-16T20:54:46.442Z,34.13
2022-10-16T20:59:51.370Z,27.87
2022-10-16T21:04:54.953Z,26.87
2022-10-16T21:09:59.227Z,32.30
2022-10-16T21:15:16.671Z,38.63
2022-10-16T21:20:21.173Z,30.40
2022-10-16T21:25:26.330Z,30.67
2022-10-16T21:30:30.218Z,21.97
2022-10-16T21:35:35.262Z,22.83
2022-10-16T21:40:40.949Z,30.00
2022-10-16T21:45:44.289Z,28.27
2022-10-16T21:50:50.648Z,34.23
2022-10-16T21:55:53.871Z,26.83
2022-10-16T22:00:57.242Z,30.73
2022-10-16T22:12:36.098Z,38.13
2022-10-16T22:17:40.201Z,47.77
2022-10-16T22:22:43.477Z,70.93
2022-10-16T22:27:46.776Z,52.77
2022-10-16T22:32:50.117Z,41.90
2022-10-16T22:37:53.286Z,30.60
2022-10-16T22:42:58.461Z,57.17
2022-10-16T22:48:02.090Z,42.50
2022-10-16T22:53:05.850Z,36.23
2022-10-16T22:58:09.031Z,28.40
2022-10-16T23:03:13.008Z,24.40
2022-10-16T23:08:16.401Z,27.50
2022-10-16T23:13:19.699Z,28.70
2022-10-16T23:18:22.979Z,34.83
2022-10-16T23:23:26.309Z,36.20
2022-10-16T23:28:29.843Z,34.53
2022-10-16T23:33:34.318Z,34.73
2022-10-16T23:38:37.672Z,30.43
2022-10-16T23:43:41.139Z,30.20
2022-10-16T23:48:44.848Z,29.53
2022-10-16T23:53:48.516Z,25.03
2022-10-16T23:58:51.769Z,23.47
